createdAt,value
2022-12-25T00:01:47.760Z,19.42
2022-12-25T00:06:49.266Z,18.08
2022-12-25T00:11:50.771Z,21.33
2022-12-25T00:16:52.396Z,21.48
2022-12-25T00:21:53.865Z,20.60
2022-12-25T00:26:55.505Z,24.52
2022-12-25T00:31:57.220Z,19.30
2022-12-25T00:36:58.789Z,31.17
2022-12-25T00:42:00.328Z,22.48
2022-12-25T00:47:02.029Z,24.27
2022-12-25T00:52:03.589Z,22.90
2022-12-25T00:57:05.085Z,21.83
2022-12-25T01:02:06.657Z,16.95
2022-12-25T01:07:08.398Z,13.95
2022-12-25T01:12:09.869Z,17.10
2022-12-25T01:17:11.338Z,20.45
2022-12-25T01:22:13.034Z,16.80
2022-12-25T01:27:14.540Z,15.07
2022-12-25T01:32:16.027Z,13.90
2022-12-25T01:37:17.526Z,16.98
2022-12-25T01:42:19.045Z,20.30
2022-12-25T01:47:20.492Z,20.58
2022-12-25T01:52:24.270Z,16.58
2022-12-25T01:57:26.135Z,17.02
2022-12-25T02:02:27.799Z,19.08
2022-12-25T02:07:29.513Z,15.02
2022-12-25T02:12:31.034Z,21.60
2022-12-25T02:17:32.665Z,20.83
2022-12-25T02:22:34.328Z,21.95
2022-12-25T02:27:35.805Z,15.52
2022-12-25T02:32:37.281Z,14.57
2022-12-25T02:37:41.364Z,19.52
2022-12-25T02:42:42.890Z,25.73
2022-12-25T02:47:44.533Z,19.80
2022-12-25T02:52:46.061Z,23.65
2022-12-25T02:57:48.115Z,19.73
2022-12-25T03:02:49.593Z,20.30
2022-12-25T03:07:51.110Z,19.85
2022-12-25T03:12:52.616Z,25.63
2022-12-25T03:17:54.159Z,18.60
2022-12-25T03:22:55.799Z,21.13
2022-12-25T03:27:57.316Z,26.10
2022-12-25T03:32:58.914Z,22.20
2022-12-25T03:38:00.462Z,22.00
2022-12-25T03:43:01.949Z,23.10
2022-12-25T03:48:03.432Z,25.98
2022-12-25T03:53:04.913Z,31.70
2022-12-25T03:58:06.384Z,17.77
2022-12-25T04:03:07.918Z,35.20
2022-12-25T04:08:09.391Z,26.40
2022-12-25T04:13:10.870Z,23.52
2022-12-25T04:18:12.376Z,39.10
2022-12-25T04:23:13.798Z,26.30
2022-12-25T04:28:15.268Z,24.67
2022-12-25T04:33:16.799Z,34.65
2022-12-25T04:38:18.430Z,33.17
2022-12-25T04:43:20.056Z,36.83
2022-12-25T04:48:21.557Z,34.15
2022-12-25T04:53:23.232Z,25.42
2022-12-25T04:58:24.751Z,27.42
2022-12-25T05:03:26.285Z,34.00
2022-12-25T05:08:27.806Z,29.63
2022-12-25T05:13:29.432Z,29.20
2022-12-25T05:18:30.974Z,35.15
2022-12-25T05:23:32.429Z,39.33
2022-12-25T05:28:33.953Z,42.92
2022-12-25T05:33:35.473Z,36.63
2022-12-25T05:38:36.975Z,32.42
2022-12-25T05:43:38.446Z,38.10
2022-12-25T05:48:39.948Z,44.15
2022-12-25T05:53:41.420Z,30.52
2022-12-25T05:58:42.913Z,35.35
2022-12-25T06:03:44.507Z,32.97
2022-12-25T06:08:46.060Z,30.77
2022-12-25T06:13:47.681Z,25.00
2022-12-25T06:18:49.178Z,21.65
2022-12-25T06:23:50.772Z,28.88
2022-12-25T06:28:52.323Z,33.85
2022-12-25T06:33:53.857Z,32.00
2022-12-25T06:38:55.371Z,24.55
2022-12-25T06:43:56.896Z,25.83
2022-12-25T06:48:58.407Z,29.00
2022-12-25T06:54:00.043Z,29.70
2022-12-25T06:59:01.542Z,40.42
2022-12-25T07:04:03.053Z,33.33
2022-12-25T07:09:04.522Z,28.55
2022-12-25T07:14:05.999Z,28.95
2022-12-25T07:19:07.469Z,42.25
2022-12-25T07:24:09.093Z,33.55
2022-12-25T07:29:10.729Z,36.00
2022-12-25T07:34:12.372Z,42.22
2022-12-25T07:39:13.888Z,43.30
2022-12-25T07:44:15.559Z,49.55
2022-12-25T07:49:17.230Z,60.55
2022-12-25T07:54:18.715Z,50.10
2022-12-25T07:59:20.131Z,53.15
2022-12-25T08:04:21.811Z,45.55
2022-12-25T08:09:23.397Z,45.05
2022-12-25T08:14:24.916Z,49.72
2022-12-25T08:19:26.383Z,100.40
2022-12-25T08:24:28.041Z,44.42
2022-12-25T08:29:29.675Z,37.80
2022-12-25T08:34:31.203Z,43.92
2022-12-25T08:39:32.718Z,47.17
2022-12-25T08:44:34.224Z,44.45
2022-12-25T08:49:35.866Z,42.80
2022-12-25T08:54:37.550Z,40.70
2022-12-25T08:59:39.071Z,43.10
2022-12-25T09:04:40.569Z,40.60
2022-12-25T09:09:42.063Z,37.25
2022-12-25T09:14:43.598Z,37.40
2022-12-25T09:19:45.107Z,33.90
2022-12-25T09:24:46.557Z,36.15
2022-12-25T09:29:48.189Z,35.20
2022-12-25T09:34:50.177Z,37.08
2022-12-25T09:39:51.822Z,36.10
2022-12-25T09:44:53.465Z,28.05
2022-12-25T09:49:54.994Z,30.80
2022-12-25T09:54:56.519Z,30.48
2022-12-25T09:59:58.038Z,26.13
2022-12-25T10:04:59.511Z,29.60
2022-12-25T10:10:00.980Z,33.08
2022-12-25T10:15:02.512Z,35.17
2022-12-25T10:20:04.022Z,36.60
2022-12-25T10:25:05.495Z,30.52
2022-12-25T10:30:07.175Z,24.95
2022-12-25T10:35:08.684Z,24.77
2022-12-25T10:40:10.331Z,23.88
2022-12-25T10:45:11.921Z,24.55
2022-12-25T10:50:13.438Z,26.92
2022-12-25T10:55:15.000Z,21.58
2022-12-25T11:00:16.498Z,29.42
2022-12-25T11:05:18.072Z,22.27
2022-12-25T11:10:19.586Z,34.75
2022-12-25T11:15:21.110Z,30.48
2022-12-25T11:20:22.777Z,24.75
2022-12-25T11:25:24.451Z,27.88
2022-12-25T11:30:25.888Z,18.80
2022-12-25T11:35:27.386Z,23.65
2022-12-25T11:40:28.867Z,22.85
2022-12-25T11:45:30.378Z,25.33
2022-12-25T11:50:31.892Z,24.40
2022-12-25T11:55:33.377Z,19.33
2022-12-25T12:00:34.829Z,24.15
2022-12-25T12:05:36.539Z,23.25
2022-12-25T12:10:38.009Z,26.23
2022-12-25T12:15:39.511Z,27.50
2022-12-25T12:20:41.577Z,24.00
2022-12-25T12:25:43.049Z,21.48
2022-12-25T12:30:44.525Z,18.65
2022-12-25T12:35:46.138Z,22.30
2022-12-25T12:40:47.835Z,24.20
2022-12-25T12:45:49.446Z,19.52
2022-12-25T12:50:50.965Z,18.35
2022-12-25T12:55:52.539Z,26.35
2022-12-25T13:00:54.296Z,20.00
2022-12-25T13:05:55.845Z,24.38
2022-12-25T13:10:57.640Z,21.13
2022-12-25T13:15:59.426Z,22.42
2022-12-25T13:21:00.863Z,15.07
2022-12-25T13:26:02.573Z,19.42
2022-12-25T13:31:04.025Z,21.58
2022-12-25T13:36:05.450Z,15.85
2022-12-25T13:41:06.884Z,21.33
2022-12-25T13:46:08.396Z,23.65
2022-12-25T13:51:09.957Z,28.67
2022-12-25T13:56:11.769Z,26.98
2022-12-25T14:01:13.536Z,26.15
2022-12-25T14:06:15.171Z,36.53
2022-12-25T14:11:16.747Z,27.75
2022-12-25T14:16:18.439Z,26.38
2022-12-25T14:21:19.890Z,35.03
2022-12-25T14:26:21.355Z,31.08
2022-12-25T14:31:22.942Z,42.35
2022-12-25T14:36:24.601Z,56.00
2022-12-25T14:41:26.447Z,62.50
2022-12-25T14:46:28.190Z,55.50
2022-12-25T14:51:29.904Z,59.28
2022-12-25T14:56:31.558Z,47.00
2022-12-25T15:01:33.218Z,40.38
2022-12-25T15:06:34.797Z,39.80
2022-12-25T15:11:36.319Z,45.33
2022-12-25T15:16:37.992Z,40.63
2022-12-25T15:21:39.601Z,39.33
2022-12-25T15:26:41.812Z,37.67
2022-12-25T15:31:43.343Z,43.20
2022-12-25T15:36:44.805Z,50.05
2022-12-25T15:41:46.282Z,42.10
2022-12-25T15:46:47.868Z,37.25
2022-12-25T15:51:49.336Z,38.67
2022-12-25T15:56:50.833Z,48.72
2022-12-25T16:01:52.650Z,30.55
2022-12-25T16:06:54.208Z,37.72
2022-12-25T16:11:55.700Z,30.42
2022-12-25T16:16:57.148Z,32.95
2022-12-25T16:21:58.575Z,39.60
2022-12-25T16:27:00.020Z,41.83
2022-12-25T16:32:01.451Z,44.60
2022-12-25T16:37:02.880Z,41.53
2022-12-25T16:42:04.316Z,32.03
2022-12-25T16:47:05.767Z,38.38
2022-12-25T16:52:07.179Z,36.28
2022-12-25T16:57:08.606Z,36.63
2022-12-25T17:02:10.185Z,40.22
2022-12-25T17:07:11.671Z,45.75
2022-12-25T17:12:13.134Z,51.90
2022-12-25T17:17:14.606Z,40.25
2022-12-25T17:22:16.038Z,37.78
2022-12-25T17:27:17.471Z,41.38
2022-12-25T17:32:18.888Z,38.50
2022-12-25T17:37:20.349Z,44.85
2022-12-25T17:42:21.826Z,53.10
2022-12-25T17:47:23.266Z,53.13
2022-12-25T17:52:24.733Z,49.35
2022-12-25T17:57:26.201Z,43.67
2022-12-25T18:02:27.765Z,40.05
2022-12-25T18:07:29.376Z,32.53
2022-12-25T18:12:30.817Z,37.28
2022-12-25T18:17:32.244Z,43.10
2022-12-25T18:22:33.760Z,45.50
2022-12-25T18:27:35.266Z,30.77
2022-12-25T18:32:36.736Z,37.33
2022-12-25T18:37:40.176Z,35.50
2022-12-25T18:42:41.912Z,46.50
2022-12-25T18:47:43.595Z,41.65
2022-12-25T18:52:47.363Z,42.25
2022-12-25T18:57:52.765Z,49.53
2022-12-25T19:02:54.316Z,36.38
2022-12-25T19:07:55.878Z,30.48
2022-12-25T19:12:57.325Z,31.20
2022-12-25T19:17:58.763Z,37.88
2022-12-25T19:23:00.235Z,47.35
2022-12-25T19:28:01.706Z,22.05
2022-12-25T19:33:03.434Z,41.83
2022-12-25T19:38:04.968Z,35.38
2022-12-25T19:43:06.442Z,37.40
2022-12-25T19:48:07.878Z,45.88
2022-12-25T19:53:09.373Z,47.28
2022-12-25T19:58:10.814Z,49.78
2022-12-25T20:03:12.346Z,51.47
2022-12-25T20:08:13.839Z,45.10
2022-12-25T20:13:15.279Z,32.03
2022-12-25T20:18:16.772Z,21.90
2022-12-25T20:23:18.200Z,13.50
2022-12-25T20:28:19.662Z,39.10
2022-12-25T20:33:21.164Z,29.30
2022-12-25T20:38:22.643Z,37.80
2022-12-25T20:43:24.157Z,29.98
2022-12-25T20:48:25.657Z,36.42
2022-12-25T20:53:27.114Z,30.77
2022-12-25T20:58:28.546Z,39.28
2022-12-25T21:03:30.061Z,38.65
2022-12-25T21:08:31.624Z,33.28
2022-12-25T21:13:33.079Z,31.50
2022-12-25T21:18:34.506Z,19.10
2022-12-25T21:23:35.987Z,22.10
2022-12-25T21:28:37.448Z,22.88
2022-12-25T21:33:38.913Z,26.25
2022-12-25T21:38:40.381Z,19.65
2022-12-25T21:43:41.799Z,22.00
2022-12-25T21:48:43.303Z,24.92
2022-12-25T21:53:44.746Z,32.55
2022-12-25T21:58:46.191Z,30.83
2022-12-25T22:03:47.665Z,29.42
2022-12-25T22:08:49.098Z,22.77
2022-12-25T22:13:50.731Z,30.30
2022-12-25T22:18:52.219Z,33.13
2022-12-25T22:23:53.843Z,31.50
2022-12-25T22:28:55.336Z,35.67
2022-12-25T22:33:56.973Z,30.58
2022-12-25T22:38:58.443Z,33.30
2022-12-25T22:44:17.151Z,15.88
2022-12-25T22:49:19.451Z,34.20
2022-12-25T22:54:20.918Z,13.13
2022-12-25T22:59:22.425Z,28.73
2022-12-25T23:04:23.909Z,22.20
2022-12-25T23:09:25.435Z,23.77
2022-12-25T23:14:26.944Z,29.63
2022-12-25T23:19:28.381Z,28.35
2022-12-25T23:24:29.875Z,26.88
2022-12-25T23:29:31.534Z,20.30
2022-12-25T23:34:33.042Z,25.83
2022-12-25T23:39:34.714Z,25.77
2022-12-25T23:44:36.182Z,33.17
2022-12-25T23:49:37.609Z,25.48
2022-12-25T23:54:39.109Z,26.98
2022-12-25T23:59:40.766Z,28.27
